sensor_id;sensor_type;location;lat;lon;timestamp;P1;durP1;ratioP1;P2;durP2;ratioP2
9914;SDS011;4996;48.746;9.174;2022-09-02T00:01:47;3.10;;;2.90;;
9914;SDS011;4996;48.746;9.174;2022-09-02T00:04:17;3.80;;;2.43;;
9914;SDS011;4996;48.746;9.174;2022-09-02T00:06:46;5.20;;;2.67;;
9914;SDS011;4996;48.746;9.174;2022-09-02T00:09:13;4.60;;;3.00;;
9914;SDS011;4996;48.746;9.174;2022-09-02T00:11:41;2.77;;;2.57;;
9914;SDS011;4996;48.746;9.174;2022-09-02T00:14:10;3.30;;;2.83;;
9914;SDS011;4996;48.746;9.174;2022-09-02T00:16:38;2.60;;;2.40;;
9914;SDS011;4996;48.746;9.174;2022-09-02T00:19:05;2.87;;;2.30;;
9914;SDS011;4996;48.746;9.174;2022-09-02T00:21:31;3.03;;;2.47;;
9914;SDS011;4996;48.746;9.174;2022-09-02T00:23:58;3.87;;;2.53;;
9914;SDS011;4996;48.746;9.174;2022-09-02T00:26:25;2.57;;;2.37;;
9914;SDS011;4996;48.746;9.174;2022-09-02T00:28:51;2.77;;;2.57;;
9914;SDS011;4996;48.746;9.174;2022-09-02T00:31:17;2.40;;;2.20;;
9914;SDS011;4996;48.746;9.174;2022-09-02T00:33:42;3.63;;;2.80;;
9914;SDS011;4996;48.746;9.174;2022-09-02T00:36:08;3.50;;;2.70;;
9914;SDS011;4996;48.746;9.174;2022-09-02T00:38:34;2.70;;;2.40;;
9914;SDS011;4996;48.746;9.174;2022-09-02T00:41:02;4.80;;;2.50;;
9914;SDS011;4996;48.746;9.174;2022-09-02T00:46:16;3.90;;;2.53;;
9914;SDS011;4996;48.746;9.174;2022-09-02T00:48:47;2.70;;;2.50;;
9914;SDS011;4996;48.746;9.174;2022-09-02T00:51:19;3.30;;;3.00;;
9914;SDS011;4996;48.746;9.174;2022-09-02T00:53:45;3.37;;;2.67;;
9914;SDS011;4996;48.746;9.174;2022-09-02T00:56:13;3.50;;;2.43;;
9914;SDS011;4996;48.746;9.174;2022-09-02T00:58:44;3.27;;;2.33;;
9914;SDS011;4996;48.746;9.174;2022-09-02T01:01:10;3.03;;;2.40;;
9914;SDS011;4996;48.746;9.174;2022-09-02T01:03:35;3.80;;;2.30;;
9914;SDS011;4996;48.746;9.174;2022-09-02T01:06:02;3.17;;;2.20;;
9914;SDS011;4996;48.746;9.174;2022-09-02T01:08:30;2.30;;;2.10;;
9914;SDS011;4996;48.746;9.174;2022-09-02T01:10:59;2.43;;;2.10;;
9914;SDS011;4996;48.746;9.174;2022-09-02T01:13:26;3.27;;;2.27;;
9914;SDS011;4996;48.746;9.174;2022-09-02T01:15:54;2.30;;;2.10;;
9914;SDS011;4996;48.746;9.174;2022-09-02T01:18:26;3.90;;;3.10;;
9914;SDS011;4996;48.746;9.174;2022-09-02T01:20:54;2.70;;;2.50;;
9914;SDS011;4996;48.746;9.174;2022-09-02T01:23:20;2.60;;;2.30;;
9914;SDS011;4996;48.746;9.174;2022-09-02T01:25:47;2.63;;;2.40;;
9914;SDS011;4996;48.746;9.174;2022-09-02T01:28:14;2.23;;;2.03;;
9914;SDS011;4996;48.746;9.174;2022-09-02T01:30:43;2.40;;;2.20;;
9914;SDS011;4996;48.746;9.174;2022-09-02T01:33:12;5.63;;;2.10;;
9914;SDS011;4996;48.746;9.174;2022-09-02T01:35:38;2.80;;;2.40;;
9914;SDS011;4996;48.746;9.174;2022-09-02T01:38:04;5.10;;;2.23;;
9914;SDS011;4996;48.746;9.174;2022-09-02T01:40:31;2.83;;;2.00;;
9914;SDS011;4996;48.746;9.174;2022-09-02T01:43:05;2.63;;;2.43;;
9914;SDS011;4996;48.746;9.174;2022-09-02T01:45:36;2.60;;;2.40;;
9914;SDS011;4996;48.746;9.174;2022-09-02T01:48:04;4.23;;;2.63;;
9914;SDS011;4996;48.746;9.174;2022-09-02T01:50:31;2.47;;;2.10;;
9914;SDS011;4996;48.746;9.174;2022-09-02T01:52:58;1.90;;;1.80;;
9914;SDS011;4996;48.746;9.174;2022-09-02T01:55:25;3.07;;;2.77;;
9914;SDS011;4996;48.746;9.174;2022-09-02T01:57:51;3.03;;;2.20;;
9914;SDS011;4996;48.746;9.174;2022-09-02T02:00:16;5.20;;;2.43;;
9914;SDS011;4996;48.746;9.174;2022-09-02T02:02:42;3.33;;;2.67;;
9914;SDS011;4996;48.746;9.174;2022-09-02T02:05:09;2.80;;;2.53;;
9914;SDS011;4996;48.746;9.174;2022-09-02T02:07:34;2.63;;;2.00;;
9914;SDS011;4996;48.746;9.174;2022-09-02T02:10:00;4.53;;;2.43;;
9914;SDS011;4996;48.746;9.174;2022-09-02T02:12:28;2.47;;;2.27;;
9914;SDS011;4996;48.746;9.174;2022-09-02T02:14:54;2.90;;;2.60;;
9914;SDS011;4996;48.746;9.174;2022-09-02T02:17:19;2.77;;;2.30;;
9914;SDS011;4996;48.746;9.174;2022-09-02T02:19:45;2.80;;;2.13;;
9914;SDS011;4996;48.746;9.174;2022-09-02T02:22:10;2.83;;;2.20;;
9914;SDS011;4996;48.746;9.174;2022-09-02T02:24:38;2.90;;;2.60;;
9914;SDS011;4996;48.746;9.174;2022-09-02T02:27:03;3.37;;;3.07;;
9914;SDS011;4996;48.746;9.174;2022-09-02T02:29:29;3.20;;;2.70;;
9914;SDS011;4996;48.746;9.174;2022-09-02T02:31:54;5.77;;;2.53;;
9914;SDS011;4996;48.746;9.174;2022-09-02T02:34:20;3.50;;;2.83;;
9914;SDS011;4996;48.746;9.174;2022-09-02T02:36:46;2.80;;;2.40;;
9914;SDS011;4996;48.746;9.174;2022-09-02T02:39:11;4.13;;;2.73;;
9914;SDS011;4996;48.746;9.174;2022-09-02T02:41:38;4.40;;;2.57;;
9914;SDS011;4996;48.746;9.174;2022-09-02T02:44:04;3.00;;;2.53;;
9914;SDS011;4996;48.746;9.174;2022-09-02T02:46:30;3.63;;;2.77;;
9914;SDS011;4996;48.746;9.174;2022-09-02T02:49:00;4.43;;;2.53;;
9914;SDS011;4996;48.746;9.174;2022-09-02T02:51:27;2.97;;;2.30;;
9914;SDS011;4996;48.746;9.174;2022-09-02T02:53:52;3.10;;;2.80;;
9914;SDS011;4996;48.746;9.174;2022-09-02T02:56:18;3.10;;;2.40;;
9914;SDS011;4996;48.746;9.174;2022-09-02T02:58:44;2.80;;;2.60;;
9914;SDS011;4996;48.746;9.174;2022-09-02T03:01:09;3.10;;;2.40;;
9914;SDS011;4996;48.746;9.174;2022-09-02T03:03:35;2.70;;;2.30;;
9914;SDS011;4996;48.746;9.174;2022-09-02T03:06:01;4.80;;;2.67;;
9914;SDS011;4996;48.746;9.174;2022-09-02T03:08:27;3.00;;;2.50;;
9914;SDS011;4996;48.746;9.174;2022-09-02T03:10:54;3.80;;;2.50;;
9914;SDS011;4996;48.746;9.174;2022-09-02T03:13:21;4.93;;;2.40;;
9914;SDS011;4996;48.746;9.174;2022-09-02T03:15:48;2.90;;;2.60;;
9914;SDS011;4996;48.746;9.174;2022-09-02T03:18:13;4.03;;;2.30;;
9914;SDS011;4996;48.746;9.174;2022-09-02T03:20:40;4.63;;;2.83;;
9914;SDS011;4996;48.746;9.174;2022-09-02T03:23:06;2.87;;;2.40;;
9914;SDS011;4996;48.746;9.174;2022-09-02T03:25:33;3.63;;;2.37;;
9914;SDS011;4996;48.746;9.174;2022-09-02T03:27:59;2.73;;;2.30;;
9914;SDS011;4996;48.746;9.174;2022-09-02T03:30:26;4.23;;;2.10;;
9914;SDS011;4996;48.746;9.174;2022-09-02T03:32:54;3.57;;;2.63;;
9914;SDS011;4996;48.746;9.174;2022-09-02T03:35:21;5.23;;;2.50;;
9914;SDS011;4996;48.746;9.174;2022-09-02T03:37:48;2.80;;;2.40;;
9914;SDS011;4996;48.746;9.174;2022-09-02T03:40:17;3.00;;;2.50;;
9914;SDS011;4996;48.746;9.174;2022-09-02T03:42:45;2.13;;;1.93;;
9914;SDS011;4996;48.746;9.174;2022-09-02T03:45:11;3.40;;;2.10;;
9914;SDS011;4996;48.746;9.174;2022-09-02T03:47:39;2.90;;;2.23;;
9914;SDS011;4996;48.746;9.174;2022-09-02T03:50:09;2.73;;;2.10;;
9914;SDS011;4996;48.746;9.174;2022-09-02T03:52:34;3.03;;;2.73;;
9914;SDS011;4996;48.746;9.174;2022-09-02T03:55:01;2.30;;;2.10;;
9914;SDS011;4996;48.746;9.174;2022-09-02T03:57:27;2.60;;;2.13;;
9914;SDS011;4996;48.746;9.174;2022-09-02T03:59:52;2.37;;;2.17;;
9914;SDS011;4996;48.746;9.174;2022-09-02T04:02:18;2.53;;;2.10;;
9914;SDS011;4996;48.746;9.174;2022-09-02T04:04:43;3.27;;;2.67;;
9914;SDS011;4996;48.746;9.174;2022-09-02T04:07:09;4.60;;;2.80;;
9914;SDS011;4996;48.746;9.174;2022-09-02T04:09:34;3.37;;;2.37;;
9914;SDS011;4996;48.746;9.174;2022-09-02T04:12:01;5.07;;;2.57;;
9914;SDS011;4996;48.746;9.174;2022-09-02T04:14:28;6.47;;;2.47;;
9914;SDS011;4996;48.746;9.174;2022-09-02T04:16:53;3.73;;;2.80;;
9914;SDS011;4996;48.746;9.174;2022-09-02T04:19:19;4.90;;;2.53;;
9914;SDS011;4996;48.746;9.174;2022-09-02T04:21:44;2.80;;;2.17;;
9914;SDS011;4996;48.746;9.174;2022-09-02T04:24:10;2.83;;;2.60;;
9914;SDS011;4996;48.746;9.174;2022-09-02T04:26:36;3.80;;;2.80;;
9914;SDS011;4996;48.746;9.174;2022-09-02T04:29:02;4.20;;;2.60;;
9914;SDS011;4996;48.746;9.174;2022-09-02T04:31:28;2.63;;;2.30;;
9914;SDS011;4996;48.746;9.174;2022-09-02T04:33:55;7.13;;;3.23;;
9914;SDS011;4996;48.746;9.174;2022-09-02T04:36:22;2.73;;;2.40;;
9914;SDS011;4996;48.746;9.174;2022-09-02T04:38:48;4.17;;;2.50;;
9914;SDS011;4996;48.746;9.174;2022-09-02T04:41:15;5.93;;;3.50;;
9914;SDS011;4996;48.746;9.174;2022-09-02T04:43:43;8.93;;;3.07;;
9914;SDS011;4996;48.746;9.174;2022-09-02T04:46:10;4.70;;;3.13;;
9914;SDS011;4996;48.746;9.174;2022-09-02T04:48:37;3.13;;;2.83;;
9914;SDS011;4996;48.746;9.174;2022-09-02T04:51:06;3.00;;;2.70;;
9914;SDS011;4996;48.746;9.174;2022-09-02T04:53:34;3.00;;;2.50;;
9914;SDS011;4996;48.746;9.174;2022-09-02T04:56:04;2.60;;;2.40;;
9914;SDS011;4996;48.746;9.174;2022-09-02T04:58:32;4.97;;;3.57;;
9914;SDS011;4996;48.746;9.174;2022-09-02T05:00:58;3.03;;;2.73;;
9914;SDS011;4996;48.746;9.174;2022-09-02T05:03:24;7.63;;;2.80;;
9914;SDS011;4996;48.746;9.174;2022-09-02T05:05:57;3.30;;;3.00;;
9914;SDS011;4996;48.746;9.174;2022-09-02T05:08:30;4.03;;;2.90;;
9914;SDS011;4996;48.746;9.174;2022-09-02T05:10:55;3.07;;;2.80;;
9914;SDS011;4996;48.746;9.174;2022-09-02T05:13:22;11.93;;;2.70;;
9914;SDS011;4996;48.746;9.174;2022-09-02T05:15:48;2.77;;;2.57;;
9914;SDS011;4996;48.746;9.174;2022-09-02T05:18:13;3.57;;;3.20;;
9914;SDS011;4996;48.746;9.174;2022-09-02T05:20:40;3.17;;;2.90;;
9914;SDS011;4996;48.746;9.174;2022-09-02T05:23:07;3.60;;;3.30;;
9914;SDS011;4996;48.746;9.174;2022-09-02T05:25:35;8.93;;;2.90;;
9914;SDS011;4996;48.746;9.174;2022-09-02T05:28:01;2.87;;;2.67;;
9914;SDS011;4996;48.746;9.174;2022-09-02T05:30:27;2.80;;;2.60;;
9914;SDS011;4996;48.746;9.174;2022-09-02T05:32:53;7.87;;;3.40;;
9914;SDS011;4996;48.746;9.174;2022-09-02T05:35:19;4.47;;;3.10;;
9914;SDS011;4996;48.746;9.174;2022-09-02T05:37:44;5.87;;;3.00;;
9914;SDS011;4996;48.746;9.174;2022-09-02T05:40:10;2.80;;;2.60;;
9914;SDS011;4996;48.746;9.174;2022-09-02T05:42:36;4.20;;;3.27;;
9914;SDS011;4996;48.746;9.174;2022-09-02T05:45:03;3.20;;;2.90;;
9914;SDS011;4996;48.746;9.174;2022-09-02T05:47:29;2.97;;;2.43;;
9914;SDS011;4996;48.746;9.174;2022-09-02T05:49:55;3.10;;;2.80;;
9914;SDS011;4996;48.746;9.174;2022-09-02T05:52:20;3.90;;;2.80;;
9914;SDS011;4996;48.746;9.174;2022-09-02T05:54:47;3.80;;;2.80;;
9914;SDS011;4996;48.746;9.174;2022-09-02T05:57:14;3.70;;;2.83;;
9914;SDS011;4996;48.746;9.174;2022-09-02T05:59:41;3.73;;;2.90;;
9914;SDS011;4996;48.746;9.174;2022-09-02T06:02:09;4.30;;;2.77;;
9914;SDS011;4996;48.746;9.174;2022-09-02T06:04:40;2.90;;;2.60;;
9914;SDS011;4996;48.746;9.174;2022-09-02T06:07:08;5.67;;;2.60;;
9914;SDS011;4996;48.746;9.174;2022-09-02T06:09:34;4.10;;;2.33;;
9914;SDS011;4996;48.746;9.174;2022-09-02T06:11:59;3.60;;;2.53;;
9914;SDS011;4996;48.746;9.174;2022-09-02T06:14:25;3.40;;;2.60;;
9914;SDS011;4996;48.746;9.174;2022-09-02T06:16:51;3.03;;;2.73;;
9914;SDS011;4996;48.746;9.174;2022-09-02T06:19:19;4.70;;;2.67;;
9914;SDS011;4996;48.746;9.174;2022-09-02T06:21:45;4.53;;;2.70;;
9914;SDS011;4996;48.746;9.174;2022-09-02T06:24:11;2.93;;;2.37;;
9914;SDS011;4996;48.746;9.174;2022-09-02T06:26:37;3.50;;;2.30;;
9914;SDS011;4996;48.746;9.174;2022-09-02T06:29:04;3.47;;;3.17;;
9914;SDS011;4996;48.746;9.174;2022-09-02T06:31:30;6.60;;;2.27;;
9914;SDS011;4996;48.746;9.174;2022-09-02T06:33:56;4.53;;;4.13;;
9914;SDS011;4996;48.746;9.174;2022-09-02T06:36:24;2.80;;;2.37;;
9914;SDS011;4996;48.746;9.174;2022-09-02T06:38:51;5.87;;;2.83;;
9914;SDS011;4996;48.746;9.174;2022-09-02T06:41:20;4.87;;;2.23;;
9914;SDS011;4996;48.746;9.174;2022-09-02T06:43:50;4.27;;;2.50;;
9914;SDS011;4996;48.746;9.174;2022-09-02T06:46:20;3.30;;;2.30;;
9914;SDS011;4996;48.746;9.174;2022-09-02T06:48:48;3.63;;;2.73;;
9914;SDS011;4996;48.746;9.174;2022-09-02T06:51:16;2.53;;;2.33;;
9914;SDS011;4996;48.746;9.174;2022-09-02T06:53:42;3.90;;;2.77;;
9914;SDS011;4996;48.746;9.174;2022-09-02T06:56:08;2.80;;;2.60;;
9914;SDS011;4996;48.746;9.174;2022-09-02T06:58:34;2.50;;;2.30;;
9914;SDS011;4996;48.746;9.174;2022-09-02T07:01:00;5.93;;;3.10;;
9914;SDS011;4996;48.746;9.174;2022-09-02T07:03:26;4.70;;;2.90;;
9914;SDS011;4996;48.746;9.174;2022-09-02T07:06:10;4.93;;;2.47;;
9914;SDS011;4996;48.746;9.174;2022-09-02T07:08:37;4.27;;;2.70;;
9914;SDS011;4996;48.746;9.174;2022-09-02T07:11:04;3.63;;;2.30;;
9914;SDS011;4996;48.746;9.174;2022-09-02T07:13:31;3.20;;;2.00;;
9914;SDS011;4996;48.746;9.174;2022-09-02T07:15:58;5.40;;;2.67;;
9914;SDS011;4996;48.746;9.174;2022-09-02T07:18:24;4.10;;;3.00;;
9914;SDS011;4996;48.746;9.174;2022-09-02T07:20:50;4.50;;;2.80;;
9914;SDS011;4996;48.746;9.174;2022-09-02T07:23:16;2.87;;;2.67;;
9914;SDS011;4996;48.746;9.174;2022-09-02T07:25:42;3.17;;;2.70;;
9914;SDS011;4996;48.746;9.174;2022-09-02T07:28:08;3.70;;;2.57;;
9914;SDS011;4996;48.746;9.174;2022-09-02T07:30:35;9.10;;;2.63;;
9914;SDS011;4996;48.746;9.174;2022-09-02T07:33:01;3.17;;;2.53;;
9914;SDS011;4996;48.746;9.174;2022-09-02T07:35:27;4.30;;;3.30;;
9914;SDS011;4996;48.746;9.174;2022-09-02T07:37:53;2.50;;;2.00;;
9914;SDS011;4996;48.746;9.174;2022-09-02T07:40:19;3.67;;;2.50;;
9914;SDS011;4996;48.746;9.174;2022-09-02T07:42:44;4.30;;;2.37;;
9914;SDS011;4996;48.746;9.174;2022-09-02T07:45:10;3.77;;;2.47;;
9914;SDS011;4996;48.746;9.174;2022-09-02T07:47:37;6.90;;;2.53;;
9914;SDS011;4996;48.746;9.174;2022-09-02T07:50:02;5.93;;;1.87;;
9914;SDS011;4996;48.746;9.174;2022-09-02T07:52:28;3.57;;;2.63;;
9914;SDS011;4996;48.746;9.174;2022-09-02T07:54:54;2.90;;;2.30;;
9914;SDS011;4996;48.746;9.174;2022-09-02T07:57:20;3.00;;;2.30;;
9914;SDS011;4996;48.746;9.174;2022-09-02T07:59:46;2.83;;;1.90;;
9914;SDS011;4996;48.746;9.174;2022-09-02T08:02:12;2.10;;;1.90;;
9914;SDS011;4996;48.746;9.174;2022-09-02T08:04:38;3.40;;;2.00;;
9914;SDS011;4996;48.746;9.174;2022-09-02T08:07:04;2.60;;;2.00;;
9914;SDS011;4996;48.746;9.174;2022-09-02T08:09:30;3.13;;;2.00;;
9914;SDS011;4996;48.746;9.174;2022-09-02T08:11:56;2.67;;;1.83;;
9914;SDS011;4996;48.746;9.174;2022-09-02T08:14:23;2.83;;;1.87;;
9914;SDS011;4996;48.746;9.174;2022-09-02T08:16:52;8.00;;;2.23;;
9914;SDS011;4996;48.746;9.174;2022-09-02T08:19:18;2.60;;;1.70;;
9914;SDS011;4996;48.746;9.174;2022-09-02T08:21:45;1.40;;;1.30;;
9914;SDS011;4996;48.746;9.174;2022-09-02T08:24:10;4.30;;;2.00;;
9914;SDS011;4996;48.746;9.174;2022-09-02T08:26:36;4.80;;;1.73;;
9914;SDS011;4996;48.746;9.174;2022-09-02T08:29:05;3.30;;;1.80;;
9914;SDS011;4996;48.746;9.174;2022-09-02T08:31:32;1.83;;;1.70;;
9914;SDS011;4996;48.746;9.174;2022-09-02T08:33:58;3.47;;;2.00;;
9914;SDS011;4996;48.746;9.174;2022-09-02T08:36:24;2.50;;;1.50;;
9914;SDS011;4996;48.746;9.174;2022-09-02T08:38:51;2.30;;;1.50;;
9914;SDS011;4996;48.746;9.174;2022-09-02T08:41:24;2.77;;;1.53;;
9914;SDS011;4996;48.746;9.174;2022-09-02T08:43:55;2.60;;;2.00;;
9914;SDS011;4996;48.746;9.174;2022-09-02T08:46:23;2.07;;;1.87;;
9914;SDS011;4996;48.746;9.174;2022-09-02T08:49:09;2.80;;;1.67;;
9914;SDS011;4996;48.746;9.174;2022-09-02T08:51:50;4.53;;;1.60;;
9914;SDS011;4996;48.746;9.174;2022-09-02T08:56:48;5.27;;;1.80;;
9914;SDS011;4996;48.746;9.174;2022-09-02T08:59:16;1.50;;;1.40;;
9914;SDS011;4996;48.746;9.174;2022-09-02T09:01:52;3.23;;;2.20;;
9914;SDS011;4996;48.746;9.174;2022-09-02T09:10:04;3.07;;;1.80;;
9914;SDS011;4996;48.746;9.174;2022-09-02T09:17:59;1.47;;;1.37;;
9914;SDS011;4996;48.746;9.174;2022-09-02T09:20:32;2.00;;;1.67;;
9914;SDS011;4996;48.746;9.174;2022-09-02T09:23:04;1.70;;;1.60;;
9914;SDS011;4996;48.746;9.174;2022-09-02T09:25:43;2.33;;;1.47;;
9914;SDS011;4996;48.746;9.174;2022-09-02T09:28:12;1.80;;;1.50;;
9914;SDS011;4996;48.746;9.174;2022-09-02T09:30:37;3.00;;;2.07;;
9914;SDS011;4996;48.746;9.174;2022-09-02T09:33:03;3.33;;;1.77;;
9914;SDS011;4996;48.746;9.174;2022-09-02T09:35:49;4.03;;;1.50;;
9914;SDS011;4996;48.746;9.174;2022-09-02T09:38:27;2.17;;;1.40;;
9914;SDS011;4996;48.746;9.174;2022-09-02T09:41:10;1.80;;;1.63;;
9914;SDS011;4996;48.746;9.174;2022-09-02T09:43:42;2.53;;;1.70;;
9914;SDS011;4996;48.746;9.174;2022-09-02T09:46:18;1.33;;;1.20;;
9914;SDS011;4996;48.746;9.174;2022-09-02T09:48:52;6.10;;;2.10;;
9914;SDS011;4996;48.746;9.174;2022-09-02T09:51:18;2.80;;;1.77;;
9914;SDS011;4996;48.746;9.174;2022-09-02T09:53:44;1.83;;;1.40;;
9914;SDS011;4996;48.746;9.174;2022-09-02T10:01:11;8.20;;;1.37;;
9914;SDS011;4996;48.746;9.174;2022-09-02T10:12:03;1.33;;;1.10;;
9914;SDS011;4996;48.746;9.174;2022-09-02T10:14:44;1.10;;;1.00;;
9914;SDS011;4996;48.746;9.174;2022-09-02T10:20:24;1.73;;;1.23;;
9914;SDS011;4996;48.746;9.174;2022-09-02T10:23:25;3.17;;;1.37;;
9914;SDS011;4996;48.746;9.174;2022-09-02T10:26:24;2.57;;;1.33;;
9914;SDS011;4996;48.746;9.174;2022-09-02T10:32:08;1.53;;;1.13;;
9914;SDS011;4996;48.746;9.174;2022-09-02T10:35:33;1.87;;;1.43;;
9914;SDS011;4996;48.746;9.174;2022-09-02T10:38:05;1.40;;;1.30;;
9914;SDS011;4996;48.746;9.174;2022-09-02T10:40:42;9.40;;;1.40;;
9914;SDS011;4996;48.746;9.174;2022-09-02T10:43:17;1.70;;;1.50;;
9914;SDS011;4996;48.746;9.174;2022-09-02T10:45:58;2.13;;;1.20;;
9914;SDS011;4996;48.746;9.174;2022-09-02T10:53:45;1.33;;;1.00;;
9914;SDS011;4996;48.746;9.174;2022-09-02T10:58:49;1.20;;;1.10;;
9914;SDS011;4996;48.746;9.174;2022-09-02T11:01:43;1.93;;;1.40;;
9914;SDS011;4996;48.746;9.174;2022-09-02T11:04:18;1.27;;;1.03;;
9914;SDS011;4996;48.746;9.174;2022-09-02T11:06:53;1.30;;;1.07;;
9914;SDS011;4996;48.746;9.174;2022-09-02T11:12:51;1.90;;;1.53;;
9914;SDS011;4996;48.746;9.174;2022-09-02T11:17:52;1.73;;;1.17;;
9914;SDS011;4996;48.746;9.174;2022-09-02T11:20:32;1.97;;;1.53;;
9914;SDS011;4996;48.746;9.174;2022-09-02T11:25:56;2.33;;;1.37;;
9914;SDS011;4996;48.746;9.174;2022-09-02T11:28:29;1.13;;;1.03;;
9914;SDS011;4996;48.746;9.174;2022-09-02T11:31:25;1.57;;;1.00;;
9914;SDS011;4996;48.746;9.174;2022-09-02T11:33:59;1.30;;;1.20;;
9914;SDS011;4996;48.746;9.174;2022-09-02T11:36:36;5.57;;;1.40;;
9914;SDS011;4996;48.746;9.174;2022-09-02T11:39:14;2.40;;;1.17;;
9914;SDS011;4996;48.746;9.174;2022-09-02T11:57:41;1.30;;;1.10;;
9914;SDS011;4996;48.746;9.174;2022-09-02T12:00:23;2.07;;;1.30;;
9914;SDS011;4996;48.746;9.174;2022-09-02T12:08:01;2.23;;;1.10;;
9914;SDS011;4996;48.746;9.174;2022-09-02T12:13:08;1.10;;;1.00;;
9914;SDS011;4996;48.746;9.174;2022-09-02T12:18:36;1.73;;;1.40;;
9914;SDS011;4996;48.746;9.174;2022-09-02T12:21:04;4.97;;;1.80;;
9914;SDS011;4996;48.746;9.174;2022-09-02T12:26:13;1.80;;;1.13;;
9914;SDS011;4996;48.746;9.174;2022-09-02T12:28:44;2.33;;;1.40;;
9914;SDS011;4996;48.746;9.174;2022-09-02T12:36:45;1.10;;;1.00;;
9914;SDS011;4996;48.746;9.174;2022-09-02T12:41:55;1.00;;;1.00;;
9914;SDS011;4996;48.746;9.174;2022-09-02T12:47:19;0.97;;;0.97;;
9914;SDS011;4996;48.746;9.174;2022-09-02T12:50:06;1.43;;;1.30;;
9914;SDS011;4996;48.746;9.174;2022-09-02T12:55:15;1.73;;;1.27;;
9914;SDS011;4996;48.746;9.174;2022-09-02T12:57:44;1.73;;;1.47;;
9914;SDS011;4996;48.746;9.174;2022-09-02T13:00:16;1.37;;;1.23;;
9914;SDS011;4996;48.746;9.174;2022-09-02T13:02:59;2.63;;;1.27;;
9914;SDS011;4996;48.746;9.174;2022-09-02T13:05:55;3.20;;;1.60;;
9914;SDS011;4996;48.746;9.174;2022-09-02T13:09:07;5.60;;;1.50;;
9914;SDS011;4996;48.746;9.174;2022-09-02T13:17:03;3.37;;;1.20;;
9914;SDS011;4996;48.746;9.174;2022-09-02T13:19:48;1.50;;;1.40;;
9914;SDS011;4996;48.746;9.174;2022-09-02T13:27:45;2.33;;;1.30;;
9914;SDS011;4996;48.746;9.174;2022-09-02T13:30:18;1.70;;;1.60;;
9914;SDS011;4996;48.746;9.174;2022-09-02T13:32:54;1.53;;;1.23;;
9914;SDS011;4996;48.746;9.174;2022-09-02T13:35:23;1.50;;;1.40;;
9914;SDS011;4996;48.746;9.174;2022-09-02T13:37:55;1.77;;;1.40;;
9914;SDS011;4996;48.746;9.174;2022-09-02T13:40:33;6.13;;;1.30;;
9914;SDS011;4996;48.746;9.174;2022-09-02T13:43:01;2.30;;;1.40;;
9914;SDS011;4996;48.746;9.174;2022-09-02T13:45:39;5.17;;;1.90;;
9914;SDS011;4996;48.746;9.174;2022-09-02T13:48:07;3.37;;;1.63;;
9914;SDS011;4996;48.746;9.174;2022-09-02T13:50:48;2.13;;;1.30;;
9914;SDS011;4996;48.746;9.174;2022-09-02T13:53:26;1.40;;;1.30;;
9914;SDS011;4996;48.746;9.174;2022-09-02T13:55:57;2.00;;;1.40;;
9914;SDS011;4996;48.746;9.174;2022-09-02T14:00:53;1.83;;;1.40;;
9914;SDS011;4996;48.746;9.174;2022-09-02T14:03:20;2.70;;;1.70;;
9914;SDS011;4996;48.746;9.174;2022-09-02T14:05:47;2.27;;;1.40;;
9914;SDS011;4996;48.746;9.174;2022-09-02T14:08:18;2.10;;;1.53;;
9914;SDS011;4996;48.746;9.174;2022-09-02T14:10:50;2.43;;;1.43;;
9914;SDS011;4996;48.746;9.174;2022-09-02T14:13:18;3.73;;;1.63;;
9914;SDS011;4996;48.746;9.174;2022-09-02T14:15:44;2.83;;;2.50;;
9914;SDS011;4996;48.746;9.174;2022-09-02T14:18:20;2.83;;;1.50;;
9914;SDS011;4996;48.746;9.174;2022-09-02T14:20:57;2.00;;;1.90;;
9914;SDS011;4996;48.746;9.174;2022-09-02T14:23:47;3.03;;;1.23;;
9914;SDS011;4996;48.746;9.174;2022-09-02T14:26:23;1.40;;;1.30;;
9914;SDS011;4996;48.746;9.174;2022-09-02T14:28:58;2.27;;;1.47;;
9914;SDS011;4996;48.746;9.174;2022-09-02T14:31:25;3.70;;;1.40;;
9914;SDS011;4996;48.746;9.174;2022-09-02T14:33:54;1.83;;;1.53;;
9914;SDS011;4996;48.746;9.174;2022-09-02T14:38:50;1.40;;;1.30;;
9914;SDS011;4996;48.746;9.174;2022-09-02T14:41:21;3.97;;;1.77;;
9914;SDS011;4996;48.746;9.174;2022-09-02T14:46:49;2.00;;;1.73;;
9914;SDS011;4996;48.746;9.174;2022-09-02T14:51:45;1.47;;;1.37;;
9914;SDS011;4996;48.746;9.174;2022-09-02T14:54:32;3.70;;;1.50;;
9914;SDS011;4996;48.746;9.174;2022-09-02T14:56:59;1.67;;;1.40;;
9914;SDS011;4996;48.746;9.174;2022-09-02T14:59:25;3.93;;;2.30;;
9914;SDS011;4996;48.746;9.174;2022-09-02T15:01:51;1.50;;;1.40;;
9914;SDS011;4996;48.746;9.174;2022-09-02T15:04:18;2.27;;;1.90;;
9914;SDS011;4996;48.746;9.174;2022-09-02T15:06:44;3.37;;;1.80;;
9914;SDS011;4996;48.746;9.174;2022-09-02T15:09:11;4.03;;;1.40;;
9914;SDS011;4996;48.746;9.174;2022-09-02T15:11:39;2.00;;;1.53;;
9914;SDS011;4996;48.746;9.174;2022-09-02T15:14:07;3.33;;;1.47;;
9914;SDS011;4996;48.746;9.174;2022-09-02T15:16:32;1.57;;;1.47;;
9914;SDS011;4996;48.746;9.174;2022-09-02T15:18:58;1.90;;;1.67;;
9914;SDS011;4996;48.746;9.174;2022-09-02T15:21:24;1.83;;;1.30;;
9914;SDS011;4996;48.746;9.174;2022-09-02T15:23:49;2.50;;;1.60;;
9914;SDS011;4996;48.746;9.174;2022-09-02T15:26:15;1.93;;;1.63;;
9914;SDS011;4996;48.746;9.174;2022-09-02T15:28:41;2.23;;;1.70;;
9914;SDS011;4996;48.746;9.174;2022-09-02T15:31:08;2.60;;;1.33;;
9914;SDS011;4996;48.746;9.174;2022-09-02T15:33:33;4.07;;;1.23;;
9914;SDS011;4996;48.746;9.174;2022-09-02T15:36:12;1.83;;;1.53;;
9914;SDS011;4996;48.746;9.174;2022-09-02T15:38:38;5.20;;;1.07;;
9914;SDS011;4996;48.746;9.174;2022-09-02T15:41:23;2.60;;;1.50;;
9914;SDS011;4996;48.746;9.174;2022-09-02T15:43:50;2.30;;;1.73;;
9914;SDS011;4996;48.746;9.174;2022-09-02T15:48:52;1.63;;;1.53;;
9914;SDS011;4996;48.746;9.174;2022-09-02T15:51:19;1.80;;;1.40;;
9914;SDS011;4996;48.746;9.174;2022-09-02T15:53:46;3.87;;;1.50;;
9914;SDS011;4996;48.746;9.174;2022-09-02T15:56:19;1.20;;;1.07;;
9914;SDS011;4996;48.746;9.174;2022-09-02T15:58:46;3.13;;;1.50;;
9914;SDS011;4996;48.746;9.174;2022-09-02T16:01:12;1.80;;;1.50;;
9914;SDS011;4996;48.746;9.174;2022-09-02T16:03:38;1.40;;;1.20;;
9914;SDS011;4996;48.746;9.174;2022-09-02T16:06:04;3.77;;;1.70;;
9914;SDS011;4996;48.746;9.174;2022-09-02T16:08:32;1.53;;;1.43;;
9914;SDS011;4996;48.746;9.174;2022-09-02T16:11:01;1.40;;;1.30;;
9914;SDS011;4996;48.746;9.174;2022-09-02T16:13:28;3.10;;;1.70;;
9914;SDS011;4996;48.746;9.174;2022-09-02T16:16:04;2.23;;;1.67;;
9914;SDS011;4996;48.746;9.174;2022-09-02T16:18:31;2.07;;;1.37;;
9914;SDS011;4996;48.746;9.174;2022-09-02T16:20:57;3.50;;;1.40;;
9914;SDS011;4996;48.746;9.174;2022-09-02T16:23:23;4.60;;;1.50;;
9914;SDS011;4996;48.746;9.174;2022-09-02T16:26:04;2.07;;;1.20;;
9914;SDS011;4996;48.746;9.174;2022-09-02T16:29:00;3.90;;;1.73;;
9914;SDS011;4996;48.746;9.174;2022-09-02T16:31:28;3.17;;;1.40;;
9914;SDS011;4996;48.746;9.174;2022-09-02T16:34:02;1.67;;;1.33;;
9914;SDS011;4996;48.746;9.174;2022-09-02T16:36:30;1.47;;;1.20;;
9914;SDS011;4996;48.746;9.174;2022-09-02T16:38:57;1.63;;;1.53;;
9914;SDS011;4996;48.746;9.174;2022-09-02T16:43:55;14.23;;;2.20;;
9914;SDS011;4996;48.746;9.174;2022-09-02T16:46:23;2.53;;;1.63;;
9914;SDS011;4996;48.746;9.174;2022-09-02T16:48:49;11.77;;;1.53;;
9914;SDS011;4996;48.746;9.174;2022-09-02T16:51:15;2.80;;;1.83;;
9914;SDS011;4996;48.746;9.174;2022-09-02T16:53:41;3.70;;;1.77;;
9914;SDS011;4996;48.746;9.174;2022-09-02T16:56:13;2.47;;;1.67;;
9914;SDS011;4996;48.746;9.174;2022-09-02T16:58:41;3.60;;;1.47;;
9914;SDS011;4996;48.746;9.174;2022-09-02T17:01:07;1.90;;;1.47;;
9914;SDS011;4996;48.746;9.174;2022-09-02T17:03:37;1.57;;;1.47;;
9914;SDS011;4996;48.746;9.174;2022-09-02T17:06:04;2.10;;;1.60;;
9914;SDS011;4996;48.746;9.174;2022-09-02T17:08:29;6.27;;;1.30;;
9914;SDS011;4996;48.746;9.174;2022-09-02T17:13:46;1.67;;;1.57;;
9914;SDS011;4996;48.746;9.174;2022-09-02T17:16:13;2.73;;;1.70;;
9914;SDS011;4996;48.746;9.174;2022-09-02T17:18:38;2.03;;;1.83;;
9914;SDS011;4996;48.746;9.174;2022-09-02T17:23:39;1.70;;;1.17;;
9914;SDS011;4996;48.746;9.174;2022-09-02T17:26:05;1.80;;;1.47;;
9914;SDS011;4996;48.746;9.174;2022-09-02T17:28:30;1.70;;;1.20;;
9914;SDS011;4996;48.746;9.174;2022-09-02T17:30:56;1.43;;;1.30;;
9914;SDS011;4996;48.746;9.174;2022-09-02T17:33:22;1.63;;;1.30;;
9914;SDS011;4996;48.746;9.174;2022-09-02T17:35:54;1.83;;;1.33;;